Time;durP1;ratioP1;P1;durP2;ratioP2;P2;SDS_P1;SDS_P2;PMS_P1;PMS_P2;Temp;Humidity;BMP_temperature;BMP_pressure;BME280_temperature;BME280_humidity;BME280_pressure;Samples;Min_cycle;Max_cycle;Signal;HPM_P1;HPM_P2
2021/01/18 00:01:29;;;;;;;18.13;3.50;;;2.90;93.80;;;;;;5012019;28;20482;-58
2021/01/18 00:03:54;;;;;;;13.45;3.80;;;2.90;93.80;;;;;;5021971;28;20076;-55
2021/01/18 00:06:20;;;;;;;16.42;3.78;;;2.90;93.80;;;;;;5013926;28;20185;-56
2021/01/18 00:08:47;;;;;;;16.92;3.72;;;2.90;94.00;;;;;;5021057;28;20080;-54
2021/01/18 00:11:16;;;;;;;18.05;3.55;;;2.90;93.80;;;;;;5027008;28;20045;-54
2021/01/18 00:13:44;;;;;;;16.48;3.20;;;2.90;93.70;;;;;;5017949;28;20116;-56
2021/01/18 00:16:15;;;;;;;19.50;3.35;;;2.90;93.70;;;;;;5020098;28;20129;-58
2021/01/18 00:18:42;;;;;;;17.80;4.17;;;2.80;93.70;;;;;;4999989;28;20383;-55
2021/01/18 00:21:08;;;;;;;17.02;3.78;;;2.80;93.60;;;;;;5020622;28;20405;-57
2021/01/18 00:23:36;;;;;;;20.05;3.47;;;2.80;93.60;;;;;;5014664;28;20042;-57
2021/01/18 00:26:03;;;;;;;14.23;3.67;;;2.80;93.70;;;;;;5019543;28;20080;-57
2021/01/18 00:28:31;;;;;;;21.00;3.85;;;2.70;93.70;;;;;;5013749;28;20069;-57
2021/01/18 00:30:58;;;;;;;17.90;3.58;;;2.70;93.70;;;;;;5003822;28;20040;-57
2021/01/18 00:33:24;;;;;;;14.25;3.20;;;2.70;93.70;;;;;;5017353;28;20054;-57
2021/01/18 00:35:50;;;;;;;14.90;3.08;;;2.70;93.80;;;;;;5020370;28;20049;-57
2021/01/18 00:38:15;;;;;;;19.90;3.75;;;2.70;93.80;;;;;;5024542;28;20288;-56
2021/01/18 00:40:41;;;;;;;13.13;3.10;;;2.70;93.80;;;;;;5022509;28;20080;-57
2021/01/18 00:43:08;;;;;;;18.45;3.53;;;2.80;93.80;;;;;;5017068;28;20030;-57
2021/01/18 00:45:34;;;;;;;17.88;3.13;;;2.80;93.80;;;;;;5026655;28;20195;-57
2021/01/18 00:47:59;;;;;;;21.25;3.28;;;2.80;93.80;;;;;;5027858;28;20038;-54
2021/01/18 00:50:28;;;;;;;16.30;2.95;;;2.80;93.70;;;;;;5015330;28;20048;-57
2021/01/18 00:52:55;;;;;;;19.08;3.30;;;2.70;93.80;;;;;;5015601;28;20422;-57
2021/01/18 00:55:22;;;;;;;15.77;3.03;;;2.80;93.80;;;;;;4984011;28;20061;-57
2021/01/18 00:57:49;;;;;;;20.23;3.22;;;2.80;93.80;;;;;;5019893;28;20045;-56
2021/01/18 01:00:18;;;;;;;12.52;2.95;;;2.80;93.80;;;;;;5015469;28;20042;-57
2021/01/18 01:02:45;;;;;;;13.23;3.03;;;2.70;93.80;;;;;;5018673;28;20050;-57
2021/01/18 01:05:13;;;;;;;16.02;3.00;;;2.70;93.80;;;;;;5011933;28;20505;-56
2021/01/18 01:07:40;;;;;;;13.60;2.58;;;2.70;93.70;;;;;;5012658;28;20033;-57
2021/01/18 01:10:07;;;;;;;14.40;3.17;;;2.70;93.70;;;;;;5012544;28;20109;-56
2021/01/18 01:12:34;;;;;;;15.75;2.78;;;2.70;93.80;;;;;;5021438;28;20054;-57
2021/01/18 01:14:59;;;;;;;15.60;2.75;;;2.70;93.80;;;;;;5013414;28;20090;-57
2021/01/18 01:17:25;;;;;;;23.23;3.38;;;2.70;93.80;;;;;;5013226;28;20034;-57
2021/01/18 01:19:51;;;;;;;18.77;2.67;;;2.70;93.80;;;;;;5013441;28;20549;-56
2021/01/18 01:22:17;;;;;;;15.43;2.80;;;2.70;93.90;;;;;;4951258;28;20037;-56
2021/01/18 01:24:42;;;;;;;11.93;2.88;;;2.70;93.80;;;;;;5026046;28;20371;-57
2021/01/18 01:27:08;;;;;;;14.00;2.90;;;2.70;93.80;;;;;;5021991;28;20036;-57
2021/01/18 01:29:34;;;;;;;15.88;2.85;;;2.70;93.80;;;;;;5033530;28;20049;-56
2021/01/18 01:31:59;;;;;;;21.80;3.17;;;2.70;93.80;;;;;;5030156;28;20139;-57
2021/01/18 01:34:25;;;;;;;19.50;3.40;;;2.70;93.80;;;;;;4985074;28;20036;-57
2021/01/18 01:36:51;;;;;;;15.85;3.88;;;2.70;93.80;;;;;;4953574;28;20490;-58
2021/01/18 01:39:17;;;;;;;17.27;3.50;;;2.70;93.80;;;;;;5018003;28;20038;-57
2021/01/18 01:41:43;;;;;;;18.90;3.67;;;2.70;93.70;;;;;;5018528;28;20397;-56
2021/01/18 01:44:11;;;;;;;16.90;2.97;;;2.70;93.70;;;;;;5026142;28;20098;-57
2021/01/18 01:46:38;;;;;;;18.88;3.47;;;2.60;93.70;;;;;;4980855;28;20049;-57
2021/01/18 01:49:04;;;;;;;18.92;3.33;;;2.60;93.70;;;;;;5017580;28;20485;-57
2021/01/18 01:51:30;;;;;;;18.23;3.10;;;2.60;93.70;;;;;;5020310;28;20067;-57
2021/01/18 01:53:58;;;;;;;28.80;3.97;;;2.60;93.80;;;;;;4997522;28;20042;-57
2021/01/18 01:56:24;;;;;;;15.20;2.83;;;2.50;93.80;;;;;;5020868;28;20042;-57
2021/01/18 01:58:56;;;;;;;15.57;2.65;;;2.60;93.80;;;;;;5028635;28;20034;-57
2021/01/18 02:01:21;;;;;;;18.08;3.60;;;2.50;93.80;;;;;;5022779;28;20045;-57
2021/01/18 02:03:51;;;;;;;15.38;2.60;;;2.50;93.80;;;;;;5027477;28;20060;-57
2021/01/18 02:06:18;;;;;;;16.27;3.20;;;2.50;93.80;;;;;;5022846;28;20053;-57
2021/01/18 02:08:44;;;;;;;16.08;3.33;;;2.50;93.80;;;;;;5016033;28;20048;-57
2021/01/18 02:11:10;;;;;;;15.85;3.17;;;2.50;93.90;;;;;;5023395;28;20033;-57
2021/01/18 02:13:55;;;;;;;21.00;3.50;;;2.50;93.90;;;;;;5013933;28;20054;-57
2021/01/18 02:16:37;;;;;;;11.98;3.13;;;2.50;93.90;;;;;;5000451;28;20065;-57
2021/01/18 02:19:26;;;;;;;21.50;3.53;;;2.50;93.80;;;;;;5018544;28;20084;-57
2021/01/18 02:22:18;;;;;;;19.40;3.42;;;2.50;93.90;;;;;;5016757;28;20047;-57
2021/01/18 02:25:21;;;;;;;22.10;3.38;;;2.50;93.90;;;;;;5015249;28;20099;-57
2021/01/18 02:28:19;;;;;;;22.83;4.47;;;2.50;94.00;;;;;;5012485;28;20049;-57
2021/01/18 02:31:20;;;;;;;25.35;3.22;;;2.50;94.00;;;;;;5016250;28;20046;-57
2021/01/18 02:34:11;;;;;;;22.98;3.95;;;2.50;94.10;;;;;;5009825;28;20387;-57
2021/01/18 02:37:02;;;;;;;25.40;3.58;;;2.50;94.10;;;;;;5019257;28;20030;-57
2021/01/18 02:39:52;;;;;;;25.55;3.47;;;2.50;94.10;;;;;;5016932;28;20052;-57
2021/01/18 02:42:26;;;;;;;18.80;3.75;;;2.60;94.00;;;;;;4998289;28;20052;-57
2021/01/18 02:44:57;;;;;;;21.95;3.92;;;2.60;93.90;;;;;;5026606;28;20041;-57
2021/01/18 02:47:25;;;;;;;24.05;3.75;;;2.60;93.90;;;;;;5017251;28;20046;-57
2021/01/18 02:49:52;;;;;;;25.35;3.50;;;2.50;93.90;;;;;;5020560;28;20071;-57
2021/01/18 02:52:18;;;;;;;21.77;3.53;;;2.50;93.90;;;;;;5023243;28;20487;-56
2021/01/18 02:54:43;;;;;;;20.10;3.55;;;2.50;94.20;;;;;;5022658;28;20037;-56
2021/01/18 02:57:14;;;;;;;24.15;4.30;;;2.50;93.90;;;;;;5020955;28;20046;-57
2021/01/18 02:59:41;;;;;;;23.05;4.05;;;2.50;93.90;;;;;;5014154;28;20046;-57
2021/01/18 03:02:26;;;;;;;21.10;3.58;;;2.50;94.00;;;;;;5016271;28;20044;-57
2021/01/18 03:05:00;;;;;;;17.38;3.90;;;2.50;94.00;;;;;;5015975;28;20139;-57
2021/01/18 03:07:43;;;;;;;21.98;3.78;;;2.50;94.00;;;;;;5027031;28;20045;-57
2021/01/18 03:10:18;;;;;;;21.90;4.18;;;2.50;94.10;;;;;;5021348;28;20034;-57
2021/01/18 03:12:51;;;;;;;20.33;4.15;;;2.60;94.10;;;;;;5006701;28;20046;-57
2021/01/18 03:15:20;;;;;;;16.60;4.22;;;2.60;94.00;;;;;;5015378;28;20376;-57
2021/01/18 03:17:46;;;;;;;26.08;4.68;;;2.60;94.20;;;;;;5017110;28;20614;-57
2021/01/18 03:20:13;;;;;;;21.38;5.25;;;2.60;93.90;;;;;;5021402;28;20084;-57
2021/01/18 03:22:39;;;;;;;25.08;4.40;;;2.50;94.00;;;;;;5001735;28;20034;-57
2021/01/18 03:25:09;;;;;;;20.77;4.18;;;2.50;94.00;;;;;;5018538;28;20494;-57
2021/01/18 03:27:49;;;;;;;16.48;5.10;;;2.50;93.90;;;;;;5018917;28;20501;-57
2021/01/18 03:30:19;;;;;;;24.23;5.07;;;2.50;94.00;;;;;;5017848;28;20042;-57
2021/01/18 03:32:49;;;;;;;21.25;5.15;;;2.40;94.00;;;;;;5018636;28;20041;-57
2021/01/18 03:35:16;;;;;;;18.83;5.05;;;2.40;94.00;;;;;;5012293;28;20117;-57
2021/01/18 03:37:41;;;;;;;18.15;4.95;;;2.40;94.00;;;;;;5016221;28;20069;-57
2021/01/18 03:40:08;;;;;;;23.85;5.40;;;2.40;94.20;;;;;;5027253;28;20044;-57
2021/01/18 03:42:33;;;;;;;22.85;5.55;;;2.40;94.00;;;;;;5020361;28;20116;-57
2021/01/18 03:44:59;;;;;;;19.73;6.18;;;2.40;94.00;;;;;;5024379;28;20125;-58
2021/01/18 03:47:25;;;;;;;24.05;5.97;;;2.40;94.00;;;;;;5025902;28;20065;-58
2021/01/18 03:49:50;;;;;;;26.05;5.80;;;2.40;94.00;;;;;;5024956;28;20037;-58
2021/01/18 03:52:16;;;;;;;23.60;5.85;;;2.40;94.00;;;;;;5029599;28;20037;-57
2021/01/18 03:54:41;;;;;;;23.73;6.78;;;2.40;94.00;;;;;;5028411;28;20041;-57
2021/01/18 03:57:07;;;;;;;20.85;6.28;;;2.40;94.00;;;;;;5001245;28;20041;-57
2021/01/18 03:59:33;;;;;;;21.23;5.82;;;2.50;94.10;;;;;;4997457;28;20042;-57
2021/01/18 04:01:58;;;;;;;27.23;7.35;;;2.50;94.10;;;;;;5018423;28;20487;-57
2021/01/18 04:04:24;;;;;;;22.13;6.47;;;2.50;94.10;;;;;;5013385;28;20042;-57
2021/01/18 04:06:49;;;;;;;21.27;6.97;;;2.40;94.10;;;;;;5015194;28;20059;-58
2021/01/18 04:09:15;;;;;;;24.60;7.10;;;2.50;94.20;;;;;;5029139;28;20029;-57
2021/01/18 04:11:40;;;;;;;31.77;7.47;;;2.50;94.20;;;;;;5020723;28;20128;-57
2021/01/18 04:14:06;;;;;;;28.40;6.68;;;2.50;94.10;;;;;;5006335;28;20075;-57
2021/01/18 04:16:39;;;;;;;30.42;7.50;;;2.50;94.10;;;;;;5005603;28;20049;-59
2021/01/18 04:19:05;;;;;;;23.02;6.43;;;2.50;94.10;;;;;;5014846;28;20046;-59
2021/01/18 04:21:30;;;;;;;28.77;6.65;;;2.50;94.10;;;;;;5017095;28;20121;-59
2021/01/18 04:23:56;;;;;;;19.80;7.28;;;2.50;94.20;;;;;;5022974;28;20036;-57
2021/01/18 04:26:22;;;;;;;28.60;7.35;;;2.50;94.20;;;;;;5023517;28;20521;-57
2021/01/18 04:28:47;;;;;;;22.38;7.22;;;2.50;94.20;;;;;;5025625;28;20132;-57
2021/01/18 04:31:13;;;;;;;28.10;7.40;;;2.50;94.20;;;;;;5027905;28;20302;-57
2021/01/18 04:33:38;;;;;;;25.85;6.97;;;2.60;94.20;;;;;;5011624;28;20030;-57
2021/01/18 04:36:04;;;;;;;28.05;7.15;;;2.60;94.10;;;;;;5012459;28;20490;-57
2021/01/18 04:38:30;;;;;;;24.42;7.03;;;2.60;94.10;;;;;;5017532;28;20041;-57
2021/01/18 04:40:56;;;;;;;29.10;7.57;;;2.60;94.10;;;;;;5013835;28;20042;-58
2021/01/18 04:43:22;;;;;;;31.73;7.57;;;2.60;94.10;;;;;;5006227;28;20041;-57
2021/01/18 04:45:49;;;;;;;20.88;6.35;;;2.60;94.10;;;;;;5021588;28;20041;-58
2021/01/18 04:48:15;;;;;;;29.55;7.32;;;2.60;94.10;;;;;;5024615;28;20490;-57
2021/01/18 04:50:41;;;;;;;28.02;6.93;;;2.60;94.20;;;;;;5021495;28;20110;-57
2021/01/18 04:53:15;;;;;;;29.33;7.43;;;2.50;94.20;;;;;;5022721;28;20038;-57
2021/01/18 04:55:44;;;;;;;25.35;7.45;;;2.50;94.30;;;;;;5016822;28;20091;-57
2021/01/18 04:58:11;;;;;;;29.58;7.10;;;2.50;94.40;;;;;;5016739;28;20390;-57
2021/01/18 05:00:51;;;;;;;24.20;7.35;;;2.50;94.30;;;;;;5012836;28;20038;-57
2021/01/18 05:03:19;;;;;;;36.72;8.32;;;2.50;94.20;;;;;;5010585;28;20096;-57
2021/01/18 05:05:45;;;;;;;20.20;7.03;;;2.50;94.30;;;;;;5022689;28;20033;-57
2021/01/18 05:08:42;;;;;;;19.55;7.15;;;2.60;94.30;;;;;;5019963;28;20478;-57
2021/01/18 05:11:13;;;;;;;24.10;7.10;;;2.60;94.30;;;;;;5005336;28;20551;-57
2021/01/18 05:13:39;;;;;;;25.02;7.50;;;2.60;94.30;;;;;;5009763;28;20133;-57
2021/01/18 05:16:06;;;;;;;25.63;7.15;;;2.60;94.30;;;;;;5020626;28;20116;-57
2021/01/18 05:18:34;;;;;;;27.38;7.25;;;2.40;94.20;;;;;;5022535;28;20099;-57
2021/01/18 05:21:05;;;;;;;24.58;7.53;;;2.60;94.20;;;;;;5004332;28;20193;-58
2021/01/18 05:23:31;;;;;;;29.17;7.03;;;2.60;94.20;;;;;;5009621;28;20046;-58
2021/01/18 05:26:18;;;;;;;27.25;7.80;;;2.60;94.30;;;;;;5010797;28;20389;-57
2021/01/18 05:28:52;;;;;;;30.27;7.25;;;2.70;94.20;;;;;;5008684;28;20513;-57
2021/01/18 05:31:27;;;;;;;31.48;8.05;;;2.70;94.30;;;;;;5019274;28;20044;-57
2021/01/18 05:33:57;;;;;;;29.48;7.82;;;2.70;94.30;;;;;;5013698;28;20046;-58
2021/01/18 05:36:33;;;;;;;34.75;7.38;;;2.70;94.30;;;;;;5026536;28;20386;-57
2021/01/18 05:39:08;;;;;;;25.90;7.97;;;2.70;94.50;;;;;;5020655;28;20038;-57
2021/01/18 05:41:34;;;;;;;25.63;8.35;;;2.70;94.40;;;;;;5027872;28;20576;-57
2021/01/18 05:44:01;;;;;;;25.58;7.95;;;2.80;94.40;;;;;;5027900;28;20041;-57
2021/01/18 05:46:28;;;;;;;26.63;8.30;;;2.80;94.50;;;;;;5023163;28;20514;-57
2021/01/18 05:48:55;;;;;;;29.58;8.10;;;2.80;94.50;;;;;;5006359;28;20095;-57
2021/01/18 05:51:23;;;;;;;21.52;8.38;;;2.80;94.50;;;;;;5023379;28;20116;-57
2021/01/18 05:53:49;;;;;;;26.85;8.30;;;2.80;94.40;;;;;;5018979;28;20050;-57
2021/01/18 05:56:17;;;;;;;34.60;8.95;;;2.90;94.50;;;;;;5025767;28;20053;-57
2021/01/18 05:58:44;;;;;;;26.98;8.00;;;2.80;94.40;;;;;;5011481;28;20139;-57
2021/01/18 06:01:09;;;;;;;30.33;9.25;;;2.80;94.60;;;;;;5018600;28;20137;-56
2021/01/18 06:03:35;;;;;;;28.70;9.10;;;2.90;94.60;;;;;;5014803;28;20149;-57
2021/01/18 06:06:01;;;;;;;33.45;9.65;;;2.90;94.50;;;;;;5012283;28;20038;-58
2021/01/18 06:08:27;;;;;;;25.88;9.35;;;2.90;94.50;;;;;;5017645;28;20096;-57
2021/01/18 06:10:55;;;;;;;29.35;9.40;;;2.90;94.50;;;;;;5008786;28;20549;-57
2021/01/18 06:13:22;;;;;;;36.20;9.82;;;2.90;94.60;;;;;;4999027;28;20050;-57
2021/01/18 06:16:05;;;;;;;30.23;9.32;;;3.00;94.70;;;;;;5014071;28;20042;-57
2021/01/18 06:18:35;;;;;;;29.40;10.00;;;3.00;94.50;;;;;;5016935;28;20037;-57
2021/01/18 06:21:03;;;;;;;30.60;10.02;;;3.00;94.60;;;;;;5012636;28;20042;-57
2021/01/18 06:23:29;;;;;;;30.10;10.48;;;3.00;94.50;;;;;;5006985;28;20796;-57
2021/01/18 06:25:56;;;;;;;32.17;9.68;;;3.10;94.50;;;;;;5003799;28;20038;-58
2021/01/18 06:28:29;;;;;;;29.48;9.63;;;3.10;94.50;;;;;;5011245;28;20069;-57
2021/01/18 06:30:57;;;;;;;26.65;9.73;;;3.10;94.70;;;;;;5012594;28;20033;-57
2021/01/18 06:33:34;;;;;;;31.80;10.32;;;3.20;94.90;;;;;;5011399;28;20041;-57
2021/01/18 06:36:20;;;;;;;35.40;10.68;;;3.20;95.00;;;;;;5012503;28;20494;-57
2021/01/18 06:38:58;;;;;;;28.63;10.82;;;3.20;95.10;;;;;;5011578;28;20038;-56
2021/01/18 06:41:25;;;;;;;32.25;10.88;;;3.20;94.80;;;;;;5010657;28;20054;-57
2021/01/18 06:43:51;;;;;;;33.00;10.23;;;3.20;95.00;;;;;;5013101;28;20387;-58
2021/01/18 06:46:23;;;;;;;42.00;10.85;;;3.30;94.80;;;;;;5015774;28;20048;-58
2021/01/18 06:48:51;;;;;;;32.10;11.38;;;3.30;94.80;;;;;;5023979;28;20402;-58
2021/01/18 06:51:22;;;;;;;36.75;11.38;;;3.40;95.00;;;;;;5022055;28;20059;-58
2021/01/18 06:53:50;;;;;;;36.40;11.10;;;3.40;94.90;;;;;;5016226;28;20046;-58
2021/01/18 06:56:21;;;;;;;37.88;11.85;;;3.40;94.80;;;;;;5012698;28;20056;-57
2021/01/18 06:59:02;;;;;;;31.17;11.27;;;3.40;94.80;;;;;;5015295;28;20052;-57
2021/01/18 07:01:38;;;;;;;36.65;11.40;;;3.50;94.90;;;;;;5015171;28;20506;-58
2021/01/18 07:04:08;;;;;;;45.08;11.95;;;3.40;94.90;;;;;;5015813;28;20453;-58
2021/01/18 07:06:42;;;;;;;38.03;11.82;;;3.50;94.80;;;;;;5015019;28;20448;-58
2021/01/18 07:09:13;;;;;;;36.55;12.30;;;3.50;94.90;;;;;;5016275;28;20046;-58
2021/01/18 07:11:39;;;;;;;40.83;13.98;;;3.50;94.90;;;;;;5010261;28;20049;-56
2021/01/18 07:14:07;;;;;;;39.47;13.38;;;3.50;94.90;;;;;;5012137;28;20042;-58
2021/01/18 07:16:33;;;;;;;43.70;14.15;;;3.60;94.90;;;;;;5013610;28;20043;-59
2021/01/18 07:19:03;;;;;;;36.05;12.77;;;3.60;94.80;;;;;;5012981;28;20075;-58
2021/01/18 07:21:48;;;;;;;36.10;12.88;;;3.60;94.80;;;;;;5010865;28;20064;-58
2021/01/18 07:24:15;;;;;;;46.80;12.98;;;3.70;94.90;;;;;;5011482;28;20034;-58
2021/01/18 07:26:53;;;;;;;40.97;13.32;;;3.70;95.00;;;;;;5018793;28;20045;-59
2021/01/18 07:29:21;;;;;;;47.03;13.02;;;3.70;94.90;;;;;;5010301;28;20034;-59
2021/01/18 07:31:50;;;;;;;40.88;12.38;;;3.70;94.80;;;;;;5014587;28;20042;-59
2021/01/18 07:34:18;;;;;;;40.95;12.88;;;3.70;94.80;;;;;;5013485;28;20494;-58
2021/01/18 07:36:44;;;;;;;44.25;14.30;;;3.70;94.90;;;;;;4995453;28;20104;-59
2021/01/18 07:39:24;;;;;;;38.85;14.23;;;3.70;94.80;;;;;;5011891;28;20379;-59
2021/01/18 07:41:50;;;;;;;40.72;14.02;;;3.70;94.90;;;;;;5012152;28;20042;-56
2021/01/18 07:44:41;;;;;;;36.92;13.50;;;3.70;95.00;;;;;;5015865;28;20552;-59
2021/01/18 07:47:09;;;;;;;38.53;13.80;;;3.70;95.00;;;;;;5010532;28;20049;-59
2021/01/18 07:49:37;;;;;;;35.25;13.10;;;3.70;94.90;;;;;;5013715;28;20038;-58
2021/01/18 07:52:25;;;;;;;34.38;12.88;;;3.70;94.90;;;;;;5019350;28;20037;-59
2021/01/18 07:54:52;;;;;;;39.88;13.35;;;3.70;95.00;;;;;;5023695;28;20045;-59
2021/01/18 07:57:32;;;;;;;37.53;13.70;;;3.70;94.90;;;;;;5023654;28;20124;-58
2021/01/18 08:00:21;;;;;;;37.20;12.88;;;3.80;95.00;;;;;;5024209;28;20129;-59
2021/01/18 08:02:52;;;;;;;38.50;12.57;;;3.80;95.00;;;;;;5013927;28;20050;-58
2021/01/18 08:05:27;;;;;;;41.03;13.57;;;3.80;95.00;;;;;;5012782;28;20037;-54
2021/01/18 08:08:10;;;;;;;45.80;13.70;;;3.80;95.00;;;;;;5011645;28;20462;-54
2021/01/18 08:11:08;;;;;;;39.45;13.75;;;3.80;94.90;;;;;;5010644;28;20046;-56
2021/01/18 08:13:47;;;;;;;38.42;12.57;;;3.90;94.90;;;;;;5015355;28;20049;-58
2021/01/18 08:16:35;;;;;;;38.00;13.38;;;3.90;94.90;;;;;;4996119;28;20516;-57
2021/01/18 08:19:26;;;;;;;39.95;14.20;;;3.90;95.00;;;;;;4998732;28;20038;-56
2021/01/18 08:22:01;;;;;;;36.38;12.65;;;4.00;95.00;;;;;;5013470;28;20041;-56
2021/01/18 08:24:29;;;;;;;43.30;12.63;;;4.00;95.00;;;;;;5021573;28;20037;-55
2021/01/18 08:27:15;;;;;;;39.38;12.45;;;4.10;94.90;;;;;;5016124;28;20800;-56
2021/01/18 08:29:41;;;;;;;39.65;13.27;;;4.10;94.90;;;;;;4984259;28;20100;-55
2021/01/18 08:32:33;;;;;;;36.70;11.68;;;4.10;95.00;;;;;;5019149;28;20046;-57
2021/01/18 08:35:19;;;;;;;34.22;12.85;;;4.10;94.90;;;;;;5024032;28;20037;-59
2021/01/18 08:37:59;;;;;;;37.67;13.65;;;4.20;94.90;;;;;;5014325;28;20065;-57
2021/01/18 08:40:36;;;;;;;35.30;12.00;;;4.20;94.90;;;;;;5015935;28;20045;-59
2021/01/18 08:43:03;;;;;;;37.13;12.68;;;4.30;94.90;;;;;;5021053;28;20041;-58
2021/01/18 08:45:43;;;;;;;48.85;13.38;;;4.30;94.90;;;;;;5019510;28;20101;-56
2021/01/18 08:48:15;;;;;;;41.00;12.48;;;4.30;94.90;;;;;;5003265;28;20029;-56
2021/01/18 08:50:52;;;;;;;37.38;11.93;;;4.30;94.90;;;;;;5019838;28;20040;-55
2021/01/18 08:53:23;;;;;;;36.50;12.23;;;4.40;94.90;;;;;;5020131;28;20034;-56
2021/01/18 08:55:51;;;;;;;33.20;12.35;;;4.40;94.80;;;;;;4994665;28;20068;-57
2021/01/18 08:58:38;;;;;;;34.85;11.40;;;4.40;94.90;;;;;;4998724;28;20052;-57
2021/01/18 09:01:30;;;;;;;41.40;12.80;;;4.40;95.00;;;;;;5005364;28;20071;-57
2021/01/18 09:03:58;;;;;;;36.30;11.95;;;4.40;95.00;;;;;;5021648;28;20045;-59
2021/01/18 09:06:24;;;;;;;39.72;12.68;;;4.40;95.00;;;;;;5016319;28;20128;-58
2021/01/18 09:09:01;;;;;;;30.48;11.00;;;4.40;94.90;;;;;;4981640;28;20045;-59
2021/01/18 09:11:27;;;;;;;38.15;11.93;;;4.50;95.00;;;;;;5023229;28;20073;-59
2021/01/18 09:13:53;;;;;;;36.30;11.30;;;4.50;94.90;;;;;;5020792;28;20048;-59
2021/01/18 09:16:19;;;;;;;35.92;11.25;;;4.60;95.00;;;;;;4984856;28;20048;-59
2021/01/18 09:18:45;;;;;;;34.78;9.88;;;4.70;94.90;;;;;;5010442;28;20417;-59
2021/01/18 09:21:10;;;;;;;29.52;9.43;;;4.70;94.90;;;;;;5013141;28;20066;-58
2021/01/18 09:23:36;;;;;;;29.77;11.13;;;4.70;94.90;;;;;;5020275;28;20097;-55
2021/01/18 09:26:13;;;;;;;34.92;10.55;;;4.80;94.80;;;;;;5015709;28;20038;-59
2021/01/18 09:28:40;;;;;;;33.05;10.15;;;4.80;94.90;;;;;;5011851;28;20038;-57
2021/01/18 09:31:12;;;;;;;28.63;9.73;;;4.80;94.80;;;;;;4988427;28;20526;-59
2021/01/18 09:33:42;;;;;;;32.10;10.75;;;4.80;94.80;;;;;;4994053;28;20107;-59
2021/01/18 09:36:14;;;;;;;30.33;9.90;;;4.90;94.80;;;;;;5014859;28;20041;-59
2021/01/18 09:38:41;;;;;;;35.25;10.60;;;4.90;94.80;;;;;;5016731;28;20438;-57
2021/01/18 09:41:07;;;;;;;29.70;9.73;;;5.00;94.70;;;;;;5018170;28;20072;-57
2021/01/18 09:43:34;;;;;;;30.17;9.38;;;5.00;94.80;;;;;;5024784;28;20046;-57
2021/01/18 09:46:01;;;;;;;32.55;9.93;;;5.10;94.70;;;;;;4992191;28;20103;-57
2021/01/18 09:48:28;;;;;;;34.42;10.40;;;5.20;94.70;;;;;;5032237;28;20041;-57
2021/01/18 09:51:04;;;;;;;39.70;9.55;;;5.20;94.60;;;;;;5020878;28;20045;-57
2021/01/18 09:53:30;;;;;;;28.42;9.40;;;5.20;94.70;;;;;;5002070;28;20466;-57
2021/01/18 09:56:04;;;;;;;31.48;9.50;;;5.20;94.60;;;;;;5001436;28;20041;-57
2021/01/18 09:58:32;;;;;;;34.75;9.25;;;5.20;94.70;;;;;;5019199;28;20046;-55
2021/01/18 10:01:01;;;;;;;40.55;9.70;;;5.20;94.70;;;;;;5022876;28;20041;-58
2021/01/18 10:03:54;;;;;;;31.83;9.80;;;5.30;94.70;;;;;;4999738;28;20069;-54
2021/01/18 10:06:33;;;;;;;34.42;9.55;;;5.30;94.60;;;;;;5030885;28;20437;-57
2021/01/18 10:09:08;;;;;;;31.27;8.27;;;5.40;94.40;;;;;;5015730;28;20088;-55
2021/01/18 10:11:41;;;;;;;28.27;9.07;;;5.40;94.40;;;;;;5023080;28;20060;-57
2021/01/18 10:14:16;;;;;;;33.95;8.68;;;5.40;94.50;;;;;;5023198;28;20041;-57
2021/01/18 10:17:03;;;;;;;31.08;8.95;;;5.40;94.50;;;;;;5005224;28;20510;-57
2021/01/18 10:19:29;;;;;;;30.50;9.02;;;5.40;94.50;;;;;;5007055;28;20498;-57
2021/01/18 10:21:55;;;;;;;23.25;8.20;;;5.50;94.40;;;;;;5023832;28;20038;-53
2021/01/18 10:24:25;;;;;;;22.52;8.10;;;5.60;94.40;;;;;;5023614;28;20104;-54
2021/01/18 10:27:00;;;;;;;33.85;9.90;;;5.50;94.30;;;;;;5022795;28;20056;-57
2021/01/18 10:29:46;;;;;;;30.08;8.63;;;5.50;94.30;;;;;;5018503;28;20037;-56
2021/01/18 10:32:12;;;;;;;27.08;9.15;;;5.50;94.30;;;;;;5022391;28;20824;-57
2021/01/18 10:34:38;;;;;;;39.53;9.23;;;5.50;94.30;;;;;;5007788;28;20049;-57
2021/01/18 10:37:12;;;;;;;26.42;8.07;;;5.50;94.30;;;;;;5021590;28;20091;-59
2021/01/18 10:39:42;;;;;;;22.13;8.25;;;5.50;94.40;;;;;;5017976;28;20088;-59
2021/01/18 10:42:15;;;;;;;32.70;8.50;;;5.50;94.30;;;;;;5019825;28;20172;-59
2021/01/18 10:44:56;;;;;;;27.40;8.13;;;5.60;94.30;;;;;;5012502;28;20037;-59
2021/01/18 10:47:28;;;;;;;35.45;8.25;;;5.60;94.30;;;;;;5019696;28;20052;-60
2021/01/18 10:49:59;;;;;;;22.58;7.88;;;5.60;94.30;;;;;;5012728;28;20042;-60
2021/01/18 10:52:39;;;;;;;35.42;7.30;;;5.60;94.20;;;;;;5026490;28;20049;-59
2021/01/18 10:55:07;;;;;;;30.67;8.50;;;5.60;94.20;;;;;;5024844;28;20030;-59
2021/01/18 10:57:45;;;;;;;24.25;8.55;;;5.60;94.20;;;;;;4989572;28;20049;-58
2021/01/18 11:00:20;;;;;;;20.95;7.53;;;5.60;94.20;;;;;;5004401;28;20069;-59
2021/01/18 11:03:04;;;;;;;29.25;8.32;;;5.60;94.20;;;;;;4979441;28;20042;-60
2021/01/18 11:05:33;;;;;;;26.25;7.90;;;5.70;94.20;;;;;;5021378;28;20072;-59
2021/01/18 11:08:01;;;;;;;28.85;8.15;;;5.70;94.30;;;;;;4998512;28;20037;-57
2021/01/18 11:10:28;;;;;;;27.48;7.40;;;5.70;94.20;;;;;;5017584;28;20049;-54
2021/01/18 11:13:02;;;;;;;28.80;7.53;;;5.70;94.10;;;;;;4983680;28;20053;-55
2021/01/18 11:15:33;;;;;;;23.27;7.40;;;5.80;94.10;;;;;;5026560;28;20054;-57
2021/01/18 11:17:59;;;;;;;31.85;7.55;;;5.80;94.00;;;;;;5015849;28;20430;-57
2021/01/18 11:20:27;;;;;;;24.63;7.88;;;5.70;93.90;;;;;;5018781;28;20048;-52
2021/01/18 11:22:52;;;;;;;28.88;7.80;;;5.80;94.00;;;;;;5008152;28;20044;-55
2021/01/18 11:25:20;;;;;;;22.90;7.10;;;5.80;93.90;;;;;;5010230;28;20080;-57
2021/01/18 11:27:46;;;;;;;24.83;7.40;;;5.80;93.90;;;;;;5016391;28;20030;-55
2021/01/18 11:30:13;;;;;;;25.75;7.93;;;5.80;93.90;;;;;;4994733;28;20049;-55
2021/01/18 11:32:40;;;;;;;29.30;8.48;;;5.90;93.90;;;;;;5011831;28;20054;-57
2021/01/18 11:35:07;;;;;;;26.63;7.93;;;5.90;93.90;;;;;;5009567;28;20041;-56
2021/01/18 11:37:35;;;;;;;23.42;8.30;;;5.90;93.90;;;;;;5003501;28;20041;-55
2021/01/18 11:40:05;;;;;;;25.85;7.78;;;5.90;93.80;;;;;;5019352;28;20026;-52
2021/01/18 11:42:33;;;;;;;32.15;8.07;;;5.90;93.90;;;;;;5013360;28;20037;-57
2021/01/18 11:44:59;;;;;;;22.38;8.73;;;5.80;93.80;;;;;;5020654;28;20073;-59
2021/01/18 11:47:36;;;;;;;20.80;8.23;;;5.80;93.80;;;;;;5010598;28;20108;-59
2021/01/18 11:50:03;;;;;;;33.05;9.10;;;5.90;93.80;;;;;;5017894;28;20129;-60
2021/01/18 11:52:29;;;;;;;28.98;8.65;;;5.90;93.90;;;;;;5017974;28;20056;-59
2021/01/18 11:54:54;;;;;;;21.38;9.18;;;5.90;93.90;;;;;;5013604;28;20042;-59
2021/01/18 11:57:20;;;;;;;28.02;8.95;;;5.90;93.80;;;;;;5019814;28;20547;-58
2021/01/18 11:59:46;;;;;;;17.02;8.00;;;5.90;93.70;;;;;;5018108;28;20604;-60
2021/01/18 12:02:13;;;;;;;27.98;10.38;;;5.90;93.80;;;;;;5001492;28;22123;-60
2021/01/18 12:04:39;;;;;;;30.33;9.30;;;6.00;93.70;;;;;;4984492;28;20410;-60
2021/01/18 12:07:10;;;;;;;32.75;9.95;;;5.90;93.70;;;;;;5023180;28;20038;-59
2021/01/18 12:09:36;;;;;;;28.10;9.48;;;6.00;93.70;;;;;;5019751;28;20049;-59
2021/01/18 12:12:05;;;;;;;27.13;9.48;;;6.00;93.60;;;;;;5017343;28;20140;-58
2021/01/18 12:14:30;;;;;;;22.08;8.95;;;5.90;93.80;;;;;;5015966;28;20041;-58
2021/01/18 12:17:05;;;;;;;30.13;9.65;;;5.90;93.70;;;;;;5023748;28;20037;-56
2021/01/18 12:19:31;;;;;;;26.23;9.80;;;6.00;94.20;;;;;;4987945;28;20070;-58
2021/01/18 12:21:57;;;;;;;24.60;8.43;;;6.00;93.90;;;;;;5022115;28;20041;-57
2021/01/18 12:24:23;;;;;;;29.20;9.88;;;6.00;93.70;;;;;;5016029;28;20041;-58
2021/01/18 12:26:53;;;;;;;25.52;9.27;;;6.00;93.80;;;;;;5011094;28;20050;-57
2021/01/18 12:29:19;;;;;;;24.20;8.82;;;6.00;93.70;;;;;;5010479;28;20057;-57
2021/01/18 12:31:45;;;;;;;20.30;8.20;;;6.10;93.70;;;;;;5010691;28;20065;-58
2021/01/18 12:34:11;;;;;;;20.73;7.68;;;6.10;93.70;;;;;;5010883;28;20065;-58
2021/01/18 12:36:37;;;;;;;27.00;8.35;;;6.20;93.60;;;;;;5018648;28;20100;-57
2021/01/18 12:39:09;;;;;;;24.77;7.72;;;6.10;93.60;;;;;;5016646;28;20041;-58
2021/01/18 12:41:38;;;;;;;26.83;8.20;;;6.20;93.40;;;;;;4999027;28;20045;-58
2021/01/18 12:44:05;;;;;;;25.33;7.32;;;6.30;93.50;;;;;;5011702;28;20053;-57
2021/01/18 12:46:31;;;;;;;22.80;7.47;;;6.30;92.90;;;;;;5013747;28;20413;-58
2021/01/18 12:48:57;;;;;;;24.63;8.15;;;6.30;93.00;;;;;;5016742;28;20048;-58
2021/01/18 12:51:23;;;;;;;24.17;8.38;;;6.30;93.00;;;;;;5013891;28;20037;-58
2021/01/18 12:53:48;;;;;;;22.90;7.85;;;6.30;93.00;;;;;;4992787;28;20042;-58
2021/01/18 12:56:28;;;;;;;25.20;7.45;;;6.30;93.10;;;;;;5010524;28;20046;-57
2021/01/18 12:58:55;;;;;;;25.65;8.10;;;6.30;93.00;;;;;;5011935;28;20634;-58
2021/01/18 13:01:31;;;;;;;34.75;8.68;;;6.30;93.10;;;;;;4996683;28;20120;-57
2021/01/18 13:03:58;;;;;;;18.98;7.57;;;6.30;93.00;;;;;;5011385;28;20033;-57